sensor_id;sensor_type;location;lat;lon;timestamp;P1;durP1;ratioP1;P2;durP2;ratioP2
48795;SDS011;34607;48.520;-1.330;2023-12-20T07:59:33;16.48;;;3.05;;
48795;SDS011;34607;48.520;-1.330;2023-12-20T08:02:01;15.15;;;2.80;;
48795;SDS011;34607;48.520;-1.330;2023-12-20T08:04:29;19.77;;;3.50;;
48795;SDS011;34607;48.520;-1.330;2023-12-20T08:06:56;14.95;;;3.88;;
48795;SDS011;34607;48.520;-1.330;2023-12-20T08:09:23;19.83;;;4.13;;
48795;SDS011;34607;48.520;-1.330;2023-12-20T08:11:50;16.15;;;4.00;;
48795;SDS011;34607;48.520;-1.330;2023-12-20T08:14:17;16.92;;;3.67;;
48795;SDS011;34607;48.520;-1.330;2023-12-20T08:16:45;14.48;;;3.85;;
48795;SDS011;34607;48.520;-1.330;2023-12-20T08:19:12;19.20;;;3.47;;
48795;SDS011;34607;48.520;-1.330;2023-12-20T08:21:39;14.75;;;3.08;;
48795;SDS011;34607;48.520;-1.330;2023-12-20T08:24:06;13.95;;;3.08;;
48795;SDS011;34607;48.520;-1.330;2023-12-20T08:26:34;12.73;;;3.10;;
48795;SDS011;34607;48.520;-1.330;2023-12-20T08:29:01;15.10;;;3.05;;
48795;SDS011;34607;48.520;-1.330;2023-12-20T08:31:28;14.27;;;3.80;;
48795;SDS011;34607;48.520;-1.330;2023-12-20T08:33:57;21.42;;;3.50;;
48795;SDS011;34607;48.520;-1.330;2023-12-20T08:36:24;20.90;;;3.95;;
48795;SDS011;34607;48.520;-1.330;2023-12-20T08:38:52;14.77;;;3.22;;
48795;SDS011;34607;48.520;-1.330;2023-12-20T08:41:20;13.63;;;3.22;;
48795;SDS011;34607;48.520;-1.330;2023-12-20T08:43:47;12.85;;;3.10;;
48795;SDS011;34607;48.520;-1.330;2023-12-20T08:46:15;18.75;;;3.45;;
48795;SDS011;34607;48.520;-1.330;2023-12-20T08:48:42;20.73;;;3.40;;
48795;SDS011;34607;48.520;-1.330;2023-12-20T08:51:11;14.50;;;3.25;;
48795;SDS011;34607;48.520;-1.330;2023-12-20T08:53:39;16.33;;;3.45;;
48795;SDS011;34607;48.520;-1.330;2023-12-20T08:56:07;13.35;;;2.97;;
48795;SDS011;34607;48.520;-1.330;2023-12-20T08:58:34;13.65;;;2.72;;
48795;SDS011;34607;48.520;-1.330;2023-12-20T09:01:02;17.20;;;2.95;;
48795;SDS011;34607;48.520;-1.330;2023-12-20T09:03:29;10.75;;;3.33;;
48795;SDS011;34607;48.520;-1.330;2023-12-20T09:05:57;15.63;;;3.35;;
48795;SDS011;34607;48.520;-1.330;2023-12-20T09:08:25;14.70;;;3.35;;
48795;SDS011;34607;48.520;-1.330;2023-12-20T09:10:52;14.98;;;2.97;;
48795;SDS011;34607;48.520;-1.330;2023-12-20T09:13:19;16.85;;;3.63;;
48795;SDS011;34607;48.520;-1.330;2023-12-20T09:15:47;14.52;;;4.20;;
48795;SDS011;34607;48.520;-1.330;2023-12-20T09:18:14;14.25;;;3.00;;
48795;SDS011;34607;48.520;-1.330;2023-12-20T09:20:41;15.55;;;3.25;;
48795;SDS011;34607;48.520;-1.330;2023-12-20T09:23:08;14.90;;;3.45;;
48795;SDS011;34607;48.520;-1.330;2023-12-20T09:25:37;12.05;;;2.85;;
48795;SDS011;34607;48.520;-1.330;2023-12-20T09:28:04;14.23;;;3.30;;
48795;SDS011;34607;48.520;-1.330;2023-12-20T09:30:31;9.63;;;3.25;;
48795;SDS011;34607;48.520;-1.330;2023-12-20T09:32:58;12.40;;;3.17;;
48795;SDS011;34607;48.520;-1.330;2023-12-20T09:35:25;14.18;;;3.78;;
48795;SDS011;34607;48.520;-1.330;2023-12-20T09:37:52;18.95;;;3.83;;
48795;SDS011;34607;48.520;-1.330;2023-12-20T09:40:19;19.67;;;3.90;;
48795;SDS011;34607;48.520;-1.330;2023-12-20T09:42:50;18.15;;;4.05;;
48795;SDS011;34607;48.520;-1.330;2023-12-20T09:45:23;10.77;;;2.70;;
48795;SDS011;34607;48.520;-1.330;2023-12-20T09:47:52;24.40;;;3.78;;
48795;SDS011;34607;48.520;-1.330;2023-12-20T09:50:20;20.08;;;3.70;;
48795;SDS011;34607;48.520;-1.330;2023-12-20T09:52:49;11.75;;;3.63;;
48795;SDS011;34607;48.520;-1.330;2023-12-20T09:55:17;17.13;;;3.17;;
48795;SDS011;34607;48.520;-1.330;2023-12-20T09:57:45;17.23;;;4.05;;
48795;SDS011;34607;48.520;-1.330;2023-12-20T10:00:14;10.75;;;3.53;;
48795;SDS011;34607;48.520;-1.330;2023-12-20T10:02:45;11.90;;;3.40;;
48795;SDS011;34607;48.520;-1.330;2023-12-20T10:05:17;22.42;;;4.50;;
48795;SDS011;34607;48.520;-1.330;2023-12-20T10:07:45;13.07;;;2.90;;
48795;SDS011;34607;48.520;-1.330;2023-12-20T10:10:13;10.95;;;3.08;;
48795;SDS011;34607;48.520;-1.330;2023-12-20T10:12:41;12.40;;;2.92;;
48795;SDS011;34607;48.520;-1.330;2023-12-20T10:15:29;19.50;;;3.78;;
48795;SDS011;34607;48.520;-1.330;2023-12-20T10:17:57;17.20;;;3.58;;
48795;SDS011;34607;48.520;-1.330;2023-12-20T10:20:24;18.55;;;3.55;;
48795;SDS011;34607;48.520;-1.330;2023-12-20T10:22:52;11.88;;;3.13;;
48795;SDS011;34607;48.520;-1.330;2023-12-20T10:25:19;14.90;;;3.75;;
48795;SDS011;34607;48.520;-1.330;2023-12-20T10:27:47;17.35;;;3.53;;
48795;SDS011;34607;48.520;-1.330;2023-12-20T10:30:16;13.02;;;3.50;;
48795;SDS011;34607;48.520;-1.330;2023-12-20T10:32:49;17.45;;;3.47;;
48795;SDS011;34607;48.520;-1.330;2023-12-20T10:35:16;15.23;;;3.28;;
48795;SDS011;34607;48.520;-1.330;2023-12-20T10:37:43;13.88;;;2.85;;
48795;SDS011;34607;48.520;-1.330;2023-12-20T10:40:10;14.25;;;3.50;;
48795;SDS011;34607;48.520;-1.330;2023-12-20T10:42:39;16.35;;;3.00;;
48795;SDS011;34607;48.520;-1.330;2023-12-20T10:45:08;16.25;;;3.17;;
48795;SDS011;34607;48.520;-1.330;2023-12-20T10:47:35;14.82;;;3.38;;
48795;SDS011;34607;48.520;-1.330;2023-12-20T10:50:06;12.13;;;2.92;;
48795;SDS011;34607;48.520;-1.330;2023-12-20T10:52:34;12.20;;;3.05;;
48795;SDS011;34607;48.520;-1.330;2023-12-20T10:55:02;17.70;;;3.38;;
48795;SDS011;34607;48.520;-1.330;2023-12-20T10:57:30;13.48;;;3.50;;
48795;SDS011;34607;48.520;-1.330;2023-12-20T10:59:58;16.13;;;4.47;;
48795;SDS011;34607;48.520;-1.330;2023-12-20T11:02:30;17.90;;;4.15;;
48795;SDS011;34607;48.520;-1.330;2023-12-20T11:04:59;14.98;;;3.85;;
48795;SDS011;34607;48.520;-1.330;2023-12-20T11:07:37;18.45;;;4.10;;
48795;SDS011;34607;48.520;-1.330;2023-12-20T11:10:10;15.02;;;3.35;;
48795;SDS011;34607;48.520;-1.330;2023-12-20T11:12:44;17.17;;;3.45;;
48795;SDS011;34607;48.520;-1.330;2023-12-20T11:15:15;13.18;;;3.63;;
48795;SDS011;34607;48.520;-1.330;2023-12-20T11:17:44;18.73;;;3.85;;
48795;SDS011;34607;48.520;-1.330;2023-12-20T11:20:13;17.85;;;3.85;;
48795;SDS011;34607;48.520;-1.330;2023-12-20T11:22:51;15.15;;;3.70;;
48795;SDS011;34607;48.520;-1.330;2023-12-20T11:25:19;9.40;;;3.30;;
48795;SDS011;34607;48.520;-1.330;2023-12-20T11:30:40;14.73;;;3.63;;
48795;SDS011;34607;48.520;-1.330;2023-12-20T11:33:07;12.20;;;3.08;;
48795;SDS011;34607;48.520;-1.330;2023-12-20T11:35:36;14.55;;;3.50;;
48795;SDS011;34607;48.520;-1.330;2023-12-20T11:38:04;12.68;;;3.88;;
48795;SDS011;34607;48.520;-1.330;2023-12-20T11:40:34;16.50;;;3.00;;
48795;SDS011;34607;48.520;-1.330;2023-12-20T11:43:02;15.68;;;3.30;;
48795;SDS011;34607;48.520;-1.330;2023-12-20T11:45:30;13.55;;;2.90;;
48795;SDS011;34607;48.520;-1.330;2023-12-20T11:47:57;17.27;;;3.70;;
48795;SDS011;34607;48.520;-1.330;2023-12-20T11:50:24;11.40;;;2.70;;
48795;SDS011;34607;48.520;-1.330;2023-12-20T11:52:53;15.88;;;3.70;;
48795;SDS011;34607;48.520;-1.330;2023-12-20T11:55:20;22.10;;;3.22;;
48795;SDS011;34607;48.520;-1.330;2023-12-20T11:57:49;12.68;;;3.42;;
48795;SDS011;34607;48.520;-1.330;2023-12-20T12:00:17;18.20;;;2.78;;
48795;SDS011;34607;48.520;-1.330;2023-12-20T12:02:54;13.25;;;3.60;;
48795;SDS011;34607;48.520;-1.330;2023-12-20T12:05:22;16.52;;;4.15;;
48795;SDS011;34607;48.520;-1.330;2023-12-20T12:07:49;18.63;;;3.50;;
48795;SDS011;34607;48.520;-1.330;2023-12-20T12:10:17;15.93;;;3.08;;
48795;SDS011;34607;48.520;-1.330;2023-12-20T12:12:44;12.20;;;2.95;;
48795;SDS011;34607;48.520;-1.330;2023-12-20T12:15:11;16.77;;;4.30;;
48795;SDS011;34607;48.520;-1.330;2023-12-20T12:17:39;18.50;;;3.50;;
48795;SDS011;34607;48.520;-1.330;2023-12-20T12:20:06;16.42;;;3.83;;
48795;SDS011;34607;48.520;-1.330;2023-12-20T12:22:35;15.77;;;3.88;;
48795;SDS011;34607;48.520;-1.330;2023-12-20T12:25:09;15.63;;;4.07;;
48795;SDS011;34607;48.520;-1.330;2023-12-20T12:27:40;16.40;;;3.40;;
48795;SDS011;34607;48.520;-1.330;2023-12-20T12:30:08;16.05;;;4.28;;
48795;SDS011;34607;48.520;-1.330;2023-12-20T12:32:38;14.38;;;3.67;;
48795;SDS011;34607;48.520;-1.330;2023-12-20T12:35:07;19.48;;;3.55;;
48795;SDS011;34607;48.520;-1.330;2023-12-20T12:37:37;17.50;;;3.47;;
48795;SDS011;34607;48.520;-1.330;2023-12-20T12:40:05;15.13;;;4.47;;
48795;SDS011;34607;48.520;-1.330;2023-12-20T12:42:33;17.27;;;3.30;;
48795;SDS011;34607;48.520;-1.330;2023-12-20T12:45:02;21.58;;;3.85;;
48795;SDS011;34607;48.520;-1.330;2023-12-20T12:47:29;14.20;;;3.10;;
48795;SDS011;34607;48.520;-1.330;2023-12-20T12:49:56;19.15;;;3.78;;
48795;SDS011;34607;48.520;-1.330;2023-12-20T12:52:23;16.85;;;3.58;;
48795;SDS011;34607;48.520;-1.330;2023-12-20T12:54:52;22.10;;;4.00;;
48795;SDS011;34607;48.520;-1.330;2023-12-20T12:57:19;18.15;;;3.42;;
48795;SDS011;34607;48.520;-1.330;2023-12-20T12:59:46;14.85;;;2.88;;
48795;SDS011;34607;48.520;-1.330;2023-12-20T13:02:15;12.23;;;3.20;;
48795;SDS011;34607;48.520;-1.330;2023-12-20T13:04:42;20.40;;;3.22;;
48795;SDS011;34607;48.520;-1.330;2023-12-20T13:07:10;15.50;;;4.50;;
48795;SDS011;34607;48.520;-1.330;2023-12-20T13:09:37;14.68;;;3.70;;
48795;SDS011;34607;48.520;-1.330;2023-12-20T13:12:05;16.52;;;3.58;;
48795;SDS011;34607;48.520;-1.330;2023-12-20T13:14:33;17.52;;;3.17;;
48795;SDS011;34607;48.520;-1.330;2023-12-20T13:17:00;15.57;;;3.40;;
48795;SDS011;34607;48.520;-1.330;2023-12-20T13:19:30;14.23;;;3.55;;
48795;SDS011;34607;48.520;-1.330;2023-12-20T13:21:57;14.98;;;3.28;;
48795;SDS011;34607;48.520;-1.330;2023-12-20T13:24:24;11.13;;;3.08;;
48795;SDS011;34607;48.520;-1.330;2023-12-20T13:26:51;12.43;;;3.92;;
48795;SDS011;34607;48.520;-1.330;2023-12-20T13:29:18;13.43;;;2.90;;
48795;SDS011;34607;48.520;-1.330;2023-12-20T13:31:45;14.60;;;3.55;;
48795;SDS011;34607;48.520;-1.330;2023-12-20T13:34:12;14.43;;;3.08;;
48795;SDS011;34607;48.520;-1.330;2023-12-20T13:36:41;12.30;;;3.03;;
48795;SDS011;34607;48.520;-1.330;2023-12-20T13:39:10;20.92;;;3.47;;
48795;SDS011;34607;48.520;-1.330;2023-12-20T13:41:38;11.75;;;2.92;;
48795;SDS011;34607;48.520;-1.330;2023-12-20T13:44:05;13.55;;;2.95;;
48795;SDS011;34607;48.520;-1.330;2023-12-20T13:46:33;13.38;;;3.22;;
48795;SDS011;34607;48.520;-1.330;2023-12-20T13:49:00;16.13;;;2.80;;
48795;SDS011;34607;48.520;-1.330;2023-12-20T13:51:27;13.45;;;2.90;;
48795;SDS011;34607;48.520;-1.330;2023-12-20T13:53:55;17.20;;;3.65;;
48795;SDS011;34607;48.520;-1.330;2023-12-20T13:56:22;11.52;;;2.47;;
48795;SDS011;34607;48.520;-1.330;2023-12-20T13:58:50;12.20;;;2.47;;
48795;SDS011;34607;48.520;-1.330;2023-12-20T14:01:17;8.93;;;2.47;;
48795;SDS011;34607;48.520;-1.330;2023-12-20T14:03:44;9.32;;;2.33;;
48795;SDS011;34607;48.520;-1.330;2023-12-20T14:06:11;8.65;;;1.60;;
48795;SDS011;34607;48.520;-1.330;2023-12-20T14:08:39;9.05;;;2.83;;
48795;SDS011;34607;48.520;-1.330;2023-12-20T14:11:08;13.95;;;2.20;;
48795;SDS011;34607;48.520;-1.330;2023-12-20T14:13:35;8.07;;;2.03;;
48795;SDS011;34607;48.520;-1.330;2023-12-20T14:16:03;11.35;;;2.90;;
48795;SDS011;34607;48.520;-1.330;2023-12-20T14:18:30;13.18;;;2.60;;
48795;SDS011;34607;48.520;-1.330;2023-12-20T14:20:57;12.45;;;2.55;;
48795;SDS011;34607;48.520;-1.330;2023-12-20T14:23:24;12.65;;;3.25;;
48795;SDS011;34607;48.520;-1.330;2023-12-20T14:25:51;13.65;;;3.03;;
48795;SDS011;34607;48.520;-1.330;2023-12-20T14:28:20;11.63;;;3.17;;
48795;SDS011;34607;48.520;-1.330;2023-12-20T14:30:47;9.77;;;2.90;;
48795;SDS011;34607;48.520;-1.330;2023-12-20T14:33:14;13.85;;;3.03;;
48795;SDS011;34607;48.520;-1.330;2023-12-20T14:35:41;15.30;;;2.92;;
48795;SDS011;34607;48.520;-1.330;2023-12-20T14:38:09;16.02;;;3.38;;
48795;SDS011;34607;48.520;-1.330;2023-12-20T14:40:38;11.90;;;2.15;;
48795;SDS011;34607;48.520;-1.330;2023-12-20T14:43:06;10.23;;;2.80;;
48795;SDS011;34607;48.520;-1.330;2023-12-20T14:45:34;17.15;;;2.67;;
48795;SDS011;34607;48.520;-1.330;2023-12-20T14:48:01;10.45;;;2.55;;
48795;SDS011;34607;48.520;-1.330;2023-12-20T14:50:28;12.48;;;2.80;;
48795;SDS011;34607;48.520;-1.330;2023-12-20T14:52:55;11.88;;;2.90;;
48795;SDS011;34607;48.520;-1.330;2023-12-20T14:55:22;12.15;;;2.33;;
48795;SDS011;34607;48.520;-1.330;2023-12-20T14:57:52;11.25;;;2.78;;
48795;SDS011;34607;48.520;-1.330;2023-12-20T15:00:19;10.07;;;2.70;;
48795;SDS011;34607;48.520;-1.330;2023-12-20T15:02:48;10.25;;;2.63;;
48795;SDS011;34607;48.520;-1.330;2023-12-20T15:05:15;14.05;;;2.33;;
48795;SDS011;34607;48.520;-1.330;2023-12-20T15:07:43;14.20;;;3.05;;
48795;SDS011;34607;48.520;-1.330;2023-12-20T15:10:10;15.00;;;2.97;;
48795;SDS011;34607;48.520;-1.330;2023-12-20T15:12:37;10.98;;;3.05;;
48795;SDS011;34607;48.520;-1.330;2023-12-20T15:15:04;10.57;;;2.42;;
48795;SDS011;34607;48.520;-1.330;2023-12-20T15:17:33;11.48;;;2.50;;
48795;SDS011;34607;48.520;-1.330;2023-12-20T15:20:03;11.82;;;2.63;;
48795;SDS011;34607;48.520;-1.330;2023-12-20T15:22:31;11.85;;;2.80;;
48795;SDS011;34607;48.520;-1.330;2023-12-20T15:24:59;13.57;;;2.78;;
48795;SDS011;34607;48.520;-1.330;2023-12-20T15:27:26;15.00;;;3.25;;
48795;SDS011;34607;48.520;-1.330;2023-12-20T15:29:53;14.85;;;3.35;;
48795;SDS011;34607;48.520;-1.330;2023-12-20T15:32:21;11.68;;;2.47;;
48795;SDS011;34607;48.520;-1.330;2023-12-20T15:34:48;9.52;;;2.65;;
48795;SDS011;34607;48.520;-1.330;2023-12-20T15:37:16;13.27;;;2.70;;
48795;SDS011;34607;48.520;-1.330;2023-12-20T15:39:43;14.13;;;3.20;;
48795;SDS011;34607;48.520;-1.330;2023-12-20T15:42:10;10.68;;;2.42;;
48795;SDS011;34607;48.520;-1.330;2023-12-20T15:44:37;11.38;;;2.60;;
48795;SDS011;34607;48.520;-1.330;2023-12-20T15:47:04;12.70;;;3.03;;
48795;SDS011;34607;48.520;-1.330;2023-12-20T15:49:32;13.77;;;2.97;;
48795;SDS011;34607;48.520;-1.330;2023-12-20T15:51:58;13.18;;;3.17;;
48795;SDS011;34607;48.520;-1.330;2023-12-20T15:54:27;10.18;;;2.70;;
48795;SDS011;34607;48.520;-1.330;2023-12-20T15:56:54;13.05;;;2.70;;
48795;SDS011;34607;48.520;-1.330;2023-12-20T15:59:21;11.85;;;2.45;;
48795;SDS011;34607;48.520;-1.330;2023-12-20T16:01:48;11.77;;;3.22;;
48795;SDS011;34607;48.520;-1.330;2023-12-20T16:04:15;13.05;;;2.80;;
48795;SDS011;34607;48.520;-1.330;2023-12-20T16:06:42;10.90;;;3.35;;
48795;SDS011;34607;48.520;-1.330;2023-12-20T16:09:09;11.90;;;3.00;;
48795;SDS011;34607;48.520;-1.330;2023-12-20T16:11:39;10.50;;;2.55;;
48795;SDS011;34607;48.520;-1.330;2023-12-20T16:14:07;12.73;;;2.83;;
48795;SDS011;34607;48.520;-1.330;2023-12-20T16:16:38;12.20;;;2.42;;
48795;SDS011;34607;48.520;-1.330;2023-12-20T16:19:05;10.27;;;2.47;;
48795;SDS011;34607;48.520;-1.330;2023-12-20T16:21:32;14.48;;;3.00;;
48795;SDS011;34607;48.520;-1.330;2023-12-20T16:23:59;9.07;;;2.85;;
48795;SDS011;34607;48.520;-1.330;2023-12-20T16:26:26;9.80;;;2.47;;
48795;SDS011;34607;48.520;-1.330;2023-12-20T16:28:55;8.75;;;2.20;;
48795;SDS011;34607;48.520;-1.330;2023-12-20T16:31:22;8.48;;;2.15;;
48795;SDS011;34607;48.520;-1.330;2023-12-20T16:33:50;8.90;;;2.10;;
48795;SDS011;34607;48.520;-1.330;2023-12-20T16:36:17;11.27;;;2.33;;
48795;SDS011;34607;48.520;-1.330;2023-12-20T16:38:44;11.13;;;2.83;;
48795;SDS011;34607;48.520;-1.330;2023-12-20T16:41:11;8.25;;;2.65;;
48795;SDS011;34607;48.520;-1.330;2023-12-20T16:43:38;8.85;;;1.80;;
48795;SDS011;34607;48.520;-1.330;2023-12-20T16:46:06;9.15;;;2.35;;
48795;SDS011;34607;48.520;-1.330;2023-12-20T16:48:33;6.03;;;2.03;;
48795;SDS011;34607;48.520;-1.330;2023-12-20T16:51:00;15.55;;;2.60;;
48795;SDS011;34607;48.520;-1.330;2023-12-20T16:53:27;11.80;;;2.63;;
48795;SDS011;34607;48.520;-1.330;2023-12-20T16:55:54;9.73;;;2.10;;
48795;SDS011;34607;48.520;-1.330;2023-12-20T16:58:22;15.02;;;2.45;;
48795;SDS011;34607;48.520;-1.330;2023-12-20T17:00:49;10.73;;;1.83;;
48795;SDS011;34607;48.520;-1.330;2023-12-20T17:03:17;13.90;;;2.13;;
48795;SDS011;34607;48.520;-1.330;2023-12-20T17:05:45;11.88;;;2.60;;
48795;SDS011;34607;48.520;-1.330;2023-12-20T17:08:12;12.68;;;2.67;;
48795;SDS011;34607;48.520;-1.330;2023-12-20T17:10:39;11.98;;;2.97;;
48795;SDS011;34607;48.520;-1.330;2023-12-20T17:13:06;12.20;;;2.50;;
48795;SDS011;34607;48.520;-1.330;2023-12-20T17:15:33;11.73;;;3.03;;
48795;SDS011;34607;48.520;-1.330;2023-12-20T17:18:00;10.77;;;2.80;;
48795;SDS011;34607;48.520;-1.330;2023-12-20T17:20:32;13.55;;;2.78;;
48795;SDS011;34607;48.520;-1.330;2023-12-20T17:22:59;12.68;;;2.53;;
48795;SDS011;34607;48.520;-1.330;2023-12-20T17:25:26;10.20;;;2.70;;
48795;SDS011;34607;48.520;-1.330;2023-12-20T17:27:53;11.00;;;2.00;;
48795;SDS011;34607;48.520;-1.330;2023-12-20T17:30:21;11.50;;;2.13;;
48795;SDS011;34607;48.520;-1.330;2023-12-20T17:32:48;8.35;;;2.17;;
48795;SDS011;34607;48.520;-1.330;2023-12-20T17:35:15;12.18;;;2.30;;
48795;SDS011;34607;48.520;-1.330;2023-12-20T17:37:45;11.45;;;3.08;;
48795;SDS011;34607;48.520;-1.330;2023-12-20T17:40:12;11.98;;;3.10;;
48795;SDS011;34607;48.520;-1.330;2023-12-20T17:42:39;6.07;;;3.10;;
48795;SDS011;34607;48.520;-1.330;2023-12-20T17:45:07;7.80;;;2.33;;
48795;SDS011;34607;48.520;-1.330;2023-12-20T17:47:34;13.90;;;2.80;;
48795;SDS011;34607;48.520;-1.330;2023-12-20T17:50:01;11.77;;;2.38;;
48795;SDS011;34607;48.520;-1.330;2023-12-20T17:52:28;14.10;;;2.88;;
48795;SDS011;34607;48.520;-1.330;2023-12-20T17:54:57;14.13;;;2.80;;
48795;SDS011;34607;48.520;-1.330;2023-12-20T17:57:24;14.93;;;2.83;;
48795;SDS011;34607;48.520;-1.330;2023-12-20T17:59:51;12.68;;;1.70;;
48795;SDS011;34607;48.520;-1.330;2023-12-20T18:02:18;8.60;;;2.55;;
48795;SDS011;34607;48.520;-1.330;2023-12-20T18:04:45;6.22;;;1.75;;
48795;SDS011;34607;48.520;-1.330;2023-12-20T18:07:12;7.45;;;2.35;;
48795;SDS011;34607;48.520;-1.330;2023-12-20T18:09:39;5.80;;;1.60;;
48795;SDS011;34607;48.520;-1.330;2023-12-20T18:12:08;10.57;;;1.77;;
48795;SDS011;34607;48.520;-1.330;2023-12-20T18:14:36;9.90;;;1.73;;
48795;SDS011;34607;48.520;-1.330;2023-12-20T18:17:03;6.70;;;2.25;;
48795;SDS011;34607;48.520;-1.330;2023-12-20T18:19:30;9.77;;;2.17;;
48795;SDS011;34607;48.520;-1.330;2023-12-20T18:21:57;8.82;;;1.77;;
48795;SDS011;34607;48.520;-1.330;2023-12-20T18:24:24;6.72;;;1.80;;
48795;SDS011;34607;48.520;-1.330;2023-12-20T18:26:51;8.63;;;1.90;;
48795;SDS011;34607;48.520;-1.330;2023-12-20T18:29:20;11.20;;;2.35;;
48795;SDS011;34607;48.520;-1.330;2023-12-20T18:31:47;7.38;;;2.50;;
48795;SDS011;34607;48.520;-1.330;2023-12-20T18:34:14;7.07;;;2.00;;
48795;SDS011;34607;48.520;-1.330;2023-12-20T18:36:41;10.77;;;2.33;;
48795;SDS011;34607;48.520;-1.330;2023-12-20T18:39:08;9.40;;;2.50;;
48795;SDS011;34607;48.520;-1.330;2023-12-20T18:41:36;8.35;;;1.95;;
48795;SDS011;34607;48.520;-1.330;2023-12-20T18:44:04;11.45;;;2.50;;
48795;SDS011;34607;48.520;-1.330;2023-12-20T18:46:33;14.52;;;3.10;;
48795;SDS011;34607;48.520;-1.330;2023-12-20T18:49:00;11.85;;;2.80;;
48795;SDS011;34607;48.520;-1.330;2023-12-20T18:51:27;15.88;;;3.03;;
48795;SDS011;34607;48.520;-1.330;2023-12-20T18:53:54;11.50;;;2.58;;
48795;SDS011;34607;48.520;-1.330;2023-12-20T18:56:21;11.02;;;2.13;;
48795;SDS011;34607;48.520;-1.330;2023-12-20T18:58:48;11.02;;;2.75;;
48795;SDS011;34607;48.520;-1.330;2023-12-20T19:01:15;14.38;;;2.72;;
48795;SDS011;34607;48.520;-1.330;2023-12-20T19:03:44;13.95;;;3.72;;
48795;SDS011;34607;48.520;-1.330;2023-12-20T19:06:11;11.40;;;2.55;;
48795;SDS011;34607;48.520;-1.330;2023-12-20T19:08:38;13.73;;;2.65;;
48795;SDS011;34607;48.520;-1.330;2023-12-20T19:11:06;15.88;;;2.47;;
48795;SDS011;34607;48.520;-1.330;2023-12-20T19:13:33;18.23;;;2.85;;
48795;SDS011;34607;48.520;-1.330;2023-12-20T19:16:01;15.38;;;2.97;;
48795;SDS011;34607;48.520;-1.330;2023-12-20T19:18:28;11.98;;;3.03;;
48795;SDS011;34607;48.520;-1.330;2023-12-20T19:20:56;15.18;;;3.00;;
48795;SDS011;34607;48.520;-1.330;2023-12-20T19:23:24;19.38;;;3.17;;
48795;SDS011;34607;48.520;-1.330;2023-12-20T19:25:52;16.15;;;3.28;;
48795;SDS011;34607;48.520;-1.330;2023-12-20T19:28:19;14.55;;;2.47;;
48795;SDS011;34607;48.520;-1.330;2023-12-20T19:30:47;10.75;;;3.30;;
48795;SDS011;34607;48.520;-1.330;2023-12-20T19:33:14;9.82;;;2.47;;
48795;SDS011;34607;48.520;-1.330;2023-12-20T19:35:41;12.60;;;2.63;;
48795;SDS011;34607;48.520;-1.330;2023-12-20T19:38:09;16.95;;;3.53;;
48795;SDS011;34607;48.520;-1.330;2023-12-20T19:40:36;13.48;;;3.50;;
48795;SDS011;34607;48.520;-1.330;2023-12-20T19:43:03;12.23;;;2.83;;
48795;SDS011;34607;48.520;-1.330;2023-12-20T19:45:33;17.00;;;3.05;;
48795;SDS011;34607;48.520;-1.330;2023-12-20T19:48:00;13.52;;;2.97;;
48795;SDS011;34607;48.520;-1.330;2023-12-20T19:50:27;15.35;;;3.13;;
48795;SDS011;34607;48.520;-1.330;2023-12-20T19:52:54;14.45;;;3.58;;
48795;SDS011;34607;48.520;-1.330;2023-12-20T19:55:23;13.57;;;3.60;;
48795;SDS011;34607;48.520;-1.330;2023-12-20T19:57:50;20.65;;;4.03;;
48795;SDS011;34607;48.520;-1.330;2023-12-20T20:00:19;21.55;;;4.95;;
48795;SDS011;34607;48.520;-1.330;2023-12-20T20:02:46;18.95;;;5.05;;
48795;SDS011;34607;48.520;-1.330;2023-12-20T20:05:13;15.32;;;4.18;;
48795;SDS011;34607;48.520;-1.330;2023-12-20T20:07:40;21.52;;;5.10;;
48795;SDS011;34607;48.520;-1.330;2023-12-20T20:10:08;31.25;;;5.07;;
48795;SDS011;34607;48.520;-1.330;2023-12-20T20:12:36;25.63;;;5.47;;
48795;SDS011;34607;48.520;-1.330;2023-12-20T20:15:04;26.33;;;5.53;;
48795;SDS011;34607;48.520;-1.330;2023-12-20T20:17:32;19.75;;;4.65;;
48795;SDS011;34607;48.520;-1.330;2023-12-20T20:19:59;26.85;;;6.40;;
48795;SDS011;34607;48.520;-1.330;2023-12-20T20:22:26;26.88;;;5.07;;
48795;SDS011;34607;48.520;-1.330;2023-12-20T20:24:53;32.75;;;5.55;;
48795;SDS011;34607;48.520;-1.330;2023-12-20T20:27:20;31.77;;;5.85;;
48795;SDS011;34607;48.520;-1.330;2023-12-20T20:29:48;24.75;;;5.70;;
48795;SDS011;34607;48.520;-1.330;2023-12-20T20:32:15;29.45;;;6.03;;
48795;SDS011;34607;48.520;-1.330;2023-12-20T20:34:43;24.42;;;6.47;;
48795;SDS011;34607;48.520;-1.330;2023-12-20T20:37:10;25.50;;;5.72;;
48795;SDS011;34607;48.520;-1.330;2023-12-20T20:39:37;30.90;;;6.32;;
48795;SDS011;34607;48.520;-1.330;2023-12-20T20:42:04;25.48;;;5.28;;
48795;SDS011;34607;48.520;-1.330;2023-12-20T20:44:32;29.55;;;7.78;;
48795;SDS011;34607;48.520;-1.330;2023-12-20T20:47:00;35.17;;;7.05;;
48795;SDS011;34607;48.520;-1.330;2023-12-20T20:49:28;35.67;;;7.28;;
48795;SDS011;34607;48.520;-1.330;2023-12-20T20:51:55;32.28;;;6.28;;
48795;SDS011;34607;48.520;-1.330;2023-12-20T20:54:22;36.97;;;6.88;;
48795;SDS011;34607;48.520;-1.330;2023-12-20T20:56:49;36.90;;;6.13;;
48795;SDS011;34607;48.520;-1.330;2023-12-20T20:59:18;31.70;;;7.40;;
48795;SDS011;34607;48.520;-1.330;2023-12-20T21:01:45;31.58;;;6.05;;
48795;SDS011;34607;48.520;-1.330;2023-12-20T21:04:13;30.35;;;7.15;;
48795;SDS011;34607;48.520;-1.330;2023-12-20T21:06:41;31.88;;;5.78;;
48795;SDS011;34607;48.520;-1.330;2023-12-20T21:09:08;32.67;;;6.75;;
48795;SDS011;34607;48.520;-1.330;2023-12-20T21:11:35;32.65;;;7.82;;
48795;SDS011;34607;48.520;-1.330;2023-12-20T21:14:02;45.40;;;7.25;;
48795;SDS011;34607;48.520;-1.330;2023-12-20T21:16:30;39.95;;;7.65;;
48795;SDS011;34607;48.520;-1.330;2023-12-20T21:18:58;38.50;;;7.25;;
48795;SDS011;34607;48.520;-1.330;2023-12-20T21:21:26;32.17;;;6.90;;
48795;SDS011;34607;48.520;-1.330;2023-12-20T21:23:53;34.53;;;8.15;;
48795;SDS011;34607;48.520;-1.330;2023-12-20T21:26:22;30.35;;;7.15;;
48795;SDS011;34607;48.520;-1.330;2023-12-20T21:28:49;35.47;;;6.68;;
48795;SDS011;34607;48.520;-1.330;2023-12-20T21:31:16;34.28;;;6.65;;
48795;SDS011;34607;48.520;-1.330;2023-12-20T21:33:43;28.05;;;6.47;;
48795;SDS011;34607;48.520;-1.330;2023-12-20T21:36:10;37.47;;;7.22;;
48795;SDS011;34607;48.520;-1.330;2023-12-20T21:38:42;42.63;;;7.95;;
48795;SDS011;34607;48.520;-1.330;2023-12-20T21:41:09;28.23;;;6.05;;
48795;SDS011;34607;48.520;-1.330;2023-12-20T21:43:37;33.30;;;7.18;;
48795;SDS011;34607;48.520;-1.330;2023-12-20T21:46:05;31.88;;;7.22;;
48795;SDS011;34607;48.520;-1.330;2023-12-20T21:48:32;41.10;;;7.53;;
48795;SDS011;34607;48.520;-1.330;2023-12-20T21:50:59;32.42;;;7.07;;
48795;SDS011;34607;48.520;-1.330;2023-12-20T21:53:26;27.67;;;5.97;;
48795;SDS011;34607;48.520;-1.330;2023-12-20T21:55:54;33.85;;;7.53;;
48795;SDS011;34607;48.520;-1.330;2023-12-20T21:58:21;31.65;;;6.30;;
48795;SDS011;34607;48.520;-1.330;2023-12-20T22:00:48;30.63;;;7.18;;
48795;SDS011;34607;48.520;-1.330;2023-12-20T22:03:15;28.95;;;7.30;;
48795;SDS011;34607;48.520;-1.330;2023-12-20T22:05:42;36.75;;;7.32;;
48795;SDS011;34607;48.520;-1.330;2023-12-20T22:08:10;37.72;;;7.85;;
48795;SDS011;34607;48.520;-1.330;2023-12-20T22:10:38;37.22;;;7.05;;
48795;SDS011;34607;48.520;-1.330;2023-12-20T22:13:06;38.00;;;7.75;;
48795;SDS011;34607;48.520;-1.330;2023-12-20T22:15:34;34.75;;;8.18;;
48795;SDS011;34607;48.520;-1.330;2023-12-20T22:18:01;44.33;;;8.38;;
